createdAt,value
2024-02-16T00:01:08.397Z,100480.66
2024-02-16T00:03:38.312Z,100476.00
2024-02-16T00:06:05.245Z,100470.97
2024-02-16T00:08:32.117Z,100465.69
2024-02-16T00:10:59.595Z,100459.03
2024-02-16T00:13:26.343Z,100457.09
2024-02-16T00:15:58.990Z,100463.66
2024-02-16T00:18:28.078Z,100464.72
2024-02-16T00:20:54.931Z,100461.13
2024-02-16T00:23:23.700Z,100456.81
2024-02-16T00:25:50.427Z,100458.66
2024-02-16T00:28:17.124Z,100459.94
2024-02-16T00:30:48.198Z,100449.78
2024-02-16T00:33:14.947Z,100442.59
2024-02-16T00:35:41.706Z,100443.06
2024-02-16T00:38:08.404Z,100436.06
2024-02-16T00:40:37.159Z,100431.31
2024-02-16T00:43:04.646Z,100436.53
2024-02-16T00:45:31.326Z,100441.53
2024-02-16T00:47:58.671Z,100432.94
2024-02-16T00:50:26.790Z,100421.63
2024-02-16T00:52:53.427Z,100418.91
2024-02-16T00:55:20.117Z,100426.06
2024-02-16T00:57:46.763Z,100428.38
2024-02-16T01:00:14.054Z,100426.66
2024-02-16T01:02:40.736Z,100413.50
2024-02-16T01:05:07.671Z,100409.34
2024-02-16T01:07:34.517Z,100411.63
2024-02-16T01:10:01.212Z,100407.00
2024-02-16T01:12:28.134Z,100412.81
2024-02-16T01:14:54.933Z,100413.81
2024-02-16T01:17:21.605Z,100414.06
2024-02-16T01:19:48.282Z,100408.13
2024-02-16T01:22:15.318Z,100402.50
2024-02-16T01:24:41.978Z,100410.63
2024-02-16T01:27:08.679Z,100403.09
2024-02-16T01:29:35.389Z,100399.41
2024-02-16T01:32:03.867Z,100397.75
2024-02-16T01:34:31.542Z,100393.31
2024-02-16T01:36:58.331Z,100391.75
2024-02-16T01:39:25.148Z,100383.53
2024-02-16T01:41:51.836Z,100389.28
2024-02-16T01:44:18.556Z,100386.94
2024-02-16T01:46:45.342Z,100379.97
2024-02-16T01:49:12.668Z,100369.31
2024-02-16T01:51:39.466Z,100364.88
2024-02-16T01:54:06.227Z,100363.72
2024-02-16T01:56:32.958Z,100359.81
2024-02-16T01:58:59.705Z,100350.00
2024-02-16T02:01:26.830Z,100355.75
2024-02-16T02:04:00.958Z,100354.03
2024-02-16T02:06:27.796Z,100350.47
2024-02-16T02:08:54.509Z,100351.25
2024-02-16T02:11:21.183Z,100350.72
2024-02-16T02:13:47.960Z,100346.41
2024-02-16T02:16:15.135Z,100338.13
2024-02-16T02:18:41.921Z,100336.44
2024-02-16T02:21:08.737Z,100326.16
2024-02-16T02:23:35.391Z,100324.69
2024-02-16T02:26:04.939Z,100321.56
2024-02-16T02:28:31.631Z,100325.22
2024-02-16T02:30:59.096Z,100330.03
2024-02-16T02:33:26.222Z,100333.00
2024-02-16T02:35:55.534Z,100328.50
2024-02-16T02:38:22.180Z,100334.22
2024-02-16T02:40:48.929Z,100317.88
2024-02-16T02:43:15.781Z,100313.13
2024-02-16T02:45:42.695Z,100312.53
2024-02-16T02:48:09.548Z,100309.44
2024-02-16T02:50:36.270Z,100304.25
2024-02-16T02:53:02.875Z,100303.38
2024-02-16T02:55:36.992Z,100304.13
2024-02-16T02:58:04.695Z,100316.06
2024-02-16T03:00:32.149Z,100297.72
2024-02-16T03:03:07.711Z,100296.16
2024-02-16T03:05:34.438Z,100293.91
2024-02-16T03:08:02.394Z,100294.28
2024-02-16T03:10:35.781Z,100294.19
2024-02-16T03:13:04.036Z,100290.00
2024-02-16T03:15:30.899Z,100292.47
2024-02-16T03:17:57.730Z,100292.22
2024-02-16T03:20:24.400Z,100283.34
2024-02-16T03:22:53.855Z,100283.34
2024-02-16T03:25:21.192Z,100276.47
2024-02-16T03:27:47.851Z,100278.88
2024-02-16T03:30:14.788Z,100281.63
2024-02-16T03:32:41.737Z,100285.50
2024-02-16T03:35:08.486Z,100284.34
2024-02-16T03:37:35.131Z,100285.94
2024-02-16T03:40:01.915Z,100289.06
2024-02-16T03:42:28.694Z,100287.38
2024-02-16T03:44:55.353Z,100284.53
2024-02-16T03:47:31.526Z,100290.22
2024-02-16T03:49:58.231Z,100284.75
2024-02-16T03:52:24.888Z,100284.78
2024-02-16T03:54:52.656Z,100291.81
2024-02-16T03:57:19.334Z,100290.78
2024-02-16T03:59:46.111Z,100288.19
2024-02-16T04:02:14.619Z,100284.81
2024-02-16T04:04:41.302Z,100281.91
2024-02-16T04:07:10.926Z,100281.84
2024-02-16T04:09:37.708Z,100283.94
2024-02-16T04:12:05.089Z,100281.22
2024-02-16T04:14:32.091Z,100276.63
2024-02-16T04:19:42.077Z,100270.78
2024-02-16T04:22:08.807Z,100273.00
2024-02-16T04:24:35.552Z,100275.50
2024-02-16T04:27:03.424Z,100268.44
2024-02-16T04:29:31.228Z,100268.44
2024-02-16T04:31:57.782Z,100271.44
2024-02-16T04:34:24.617Z,100266.47
2024-02-16T04:36:54.086Z,100277.50
2024-02-16T04:39:21.537Z,100261.78
2024-02-16T04:41:48.316Z,100261.63
2024-02-16T04:44:15.114Z,100262.78
2024-02-16T04:46:41.716Z,100260.31
2024-02-16T04:49:08.404Z,100259.88
2024-02-16T04:51:42.504Z,100258.47
2024-02-16T04:54:12.753Z,100249.97
2024-02-16T04:56:40.557Z,100242.66
2024-02-16T04:59:07.101Z,100246.91
2024-02-16T05:01:33.819Z,100240.69
2024-02-16T05:04:01.310Z,100242.88
2024-02-16T05:06:28.183Z,100243.97
2024-02-16T05:08:54.993Z,100244.91
2024-02-16T05:11:23.259Z,100250.38
2024-02-16T05:13:50.230Z,100248.50
2024-02-16T05:16:17.420Z,100260.75
2024-02-16T05:18:44.713Z,100256.13
2024-02-16T05:21:11.463Z,100260.16
2024-02-16T05:23:38.105Z,100250.84
2024-02-16T05:26:05.127Z,100246.78
2024-02-16T05:28:31.706Z,100251.94
2024-02-16T05:30:59.006Z,100253.19
2024-02-16T05:33:25.817Z,100249.28
2024-02-16T05:35:56.694Z,100251.94
2024-02-16T05:38:33.914Z,100253.78
2024-02-16T05:41:01.150Z,100245.53
2024-02-16T05:43:28.080Z,100255.19
2024-02-16T05:45:55.014Z,100242.59
2024-02-16T05:48:23.117Z,100251.66
2024-02-16T05:50:50.206Z,100257.59
2024-02-16T05:53:17.216Z,100250.47
2024-02-16T05:55:45.849Z,100250.38
2024-02-16T05:58:13.654Z,100251.75
2024-02-16T06:00:43.949Z,100249.03
2024-02-16T06:03:10.726Z,100241.59
2024-02-16T06:05:37.465Z,100237.22
2024-02-16T06:08:04.576Z,100241.69
2024-02-16T06:10:31.193Z,100239.97
2024-02-16T06:12:57.807Z,100237.28
2024-02-16T06:15:24.751Z,100240.25
2024-02-16T06:17:51.734Z,100228.84
2024-02-16T06:20:21.228Z,100234.97
2024-02-16T06:22:48.512Z,100231.78
2024-02-16T06:25:15.519Z,100231.78
2024-02-16T06:27:42.594Z,100229.06
2024-02-16T06:30:13.856Z,100234.41
2024-02-16T06:32:41.757Z,100237.22
2024-02-16T06:35:12.533Z,100242.94
2024-02-16T06:37:40.168Z,100234.09
2024-02-16T06:40:13.003Z,100237.91
2024-02-16T06:42:48.681Z,100231.50
2024-02-16T06:45:15.431Z,100226.53
2024-02-16T06:47:44.737Z,100236.53
2024-02-16T06:50:11.527Z,100243.41
2024-02-16T06:52:38.289Z,100238.56
2024-02-16T06:55:05.629Z,100245.53
2024-02-16T06:57:40.093Z,100239.19
2024-02-16T07:00:10.415Z,100248.63
2024-02-16T07:02:44.651Z,100244.25
2024-02-16T07:05:12.232Z,100249.19
2024-02-16T07:07:38.858Z,100258.53
2024-02-16T07:10:09.127Z,100251.31
2024-02-16T07:12:35.889Z,100255.88
2024-02-16T07:15:04.115Z,100259.03
2024-02-16T07:17:30.955Z,100264.09
2024-02-16T07:19:58.512Z,100259.69
2024-02-16T07:22:25.255Z,100263.25
2024-02-16T07:24:51.883Z,100256.72
2024-02-16T07:27:18.760Z,100261.75
2024-02-16T07:29:45.374Z,100260.34
2024-02-16T07:32:13.691Z,100269.78
2024-02-16T07:34:40.438Z,100265.47
2024-02-16T07:37:09.211Z,100261.63
2024-02-16T07:39:35.991Z,100259.66
2024-02-16T07:42:02.798Z,100249.88
2024-02-16T07:44:29.608Z,100241.34
2024-02-16T07:46:56.358Z,100241.81
2024-02-16T07:49:23.251Z,100240.31
2024-02-16T07:51:50.061Z,100234.44
2024-02-16T07:54:17.726Z,100236.22
2024-02-16T07:56:52.367Z,100236.59
2024-02-16T07:59:20.148Z,100238.28
2024-02-16T08:01:46.918Z,100245.25
2024-02-16T08:04:13.685Z,100250.47
2024-02-16T08:06:45.957Z,100248.84
2024-02-16T08:09:12.990Z,100250.56
2024-02-16T08:11:39.673Z,100243.69
2024-02-16T08:14:06.355Z,100256.63
2024-02-16T08:16:32.964Z,100255.16
2024-02-16T08:18:59.833Z,100255.19
2024-02-16T08:21:29.792Z,100255.03
2024-02-16T08:23:56.571Z,100257.84
2024-02-16T08:26:25.635Z,100260.19
2024-02-16T08:28:52.434Z,100264.97
2024-02-16T08:31:19.523Z,100250.81
2024-02-16T08:33:48.413Z,100256.78
2024-02-16T08:36:15.725Z,100243.72
2024-02-16T08:38:42.462Z,100240.97
2024-02-16T08:41:09.161Z,100248.06
2024-02-16T08:43:36.278Z,100246.81
2024-02-16T08:46:02.901Z,100250.97
2024-02-16T08:51:10.026Z,100257.81
2024-02-16T08:53:37.560Z,100250.94
2024-02-16T08:56:11.601Z,100257.91
2024-02-16T08:58:39.509Z,100252.38
2024-02-16T09:01:06.535Z,100253.78
2024-02-16T09:03:38.166Z,100248.53
2024-02-16T09:06:05.412Z,100245.22
2024-02-16T09:08:34.369Z,100248.28
2024-02-16T09:11:03.474Z,100265.88
2024-02-16T09:13:34.309Z,100266.31
2024-02-16T09:16:01.381Z,100252.31
2024-02-16T09:18:28.558Z,100255.75
2024-02-16T09:20:55.324Z,100260.13
2024-02-16T09:23:21.990Z,100257.41
2024-02-16T09:25:49.697Z,100261.94
2024-02-16T09:28:23.817Z,100259.22
2024-02-16T09:30:56.597Z,100250.66
2024-02-16T09:33:26.345Z,100253.97
2024-02-16T09:35:53.087Z,100254.69
2024-02-16T09:38:19.814Z,100256.88
2024-02-16T09:40:49.316Z,100251.97
2024-02-16T09:43:31.635Z,100247.41
2024-02-16T09:45:59.419Z,100246.84
2024-02-16T09:48:36.163Z,100258.06
2024-02-16T09:51:03.034Z,100261.28
2024-02-16T09:53:30.217Z,100271.81
2024-02-16T09:55:57.773Z,100272.66
2024-02-16T09:58:25.105Z,100279.28
2024-02-16T10:00:52.886Z,100286.28
2024-02-16T10:03:30.213Z,100277.06
2024-02-16T10:06:06.691Z,100273.50
2024-02-16T10:08:34.283Z,100279.72
2024-02-16T10:11:06.936Z,100279.69
2024-02-16T10:13:33.750Z,100280.97
2024-02-16T10:16:10.531Z,100272.22
2024-02-16T10:18:39.069Z,100283.56
2024-02-16T10:21:05.997Z,100283.44
2024-02-16T10:26:03.883Z,100295.66
2024-02-16T10:28:32.290Z,100291.59
2024-02-16T10:31:02.691Z,100287.44
2024-02-16T10:33:30.999Z,100279.25
2024-02-16T10:36:03.240Z,100275.75
2024-02-16T10:38:33.259Z,100282.91
2024-02-16T10:41:02.164Z,100275.38
2024-02-16T10:43:30.111Z,100269.47
2024-02-16T10:45:58.148Z,100282.44
2024-02-16T10:48:25.021Z,100276.97
2024-02-16T10:50:53.845Z,100276.91
2024-02-16T10:53:29.226Z,100275.81
2024-02-16T10:55:58.828Z,100285.81
2024-02-16T10:58:25.488Z,100278.63
2024-02-16T11:00:53.029Z,100283.22
2024-02-16T11:03:24.477Z,100282.31
2024-02-16T11:05:51.669Z,100288.47
2024-02-16T11:08:21.484Z,100285.44
2024-02-16T11:10:59.522Z,100284.25
2024-02-16T11:13:27.232Z,100290.34
2024-02-16T11:16:04.260Z,100294.81
2024-02-16T11:18:32.551Z,100294.09
2024-02-16T11:21:03.439Z,100279.47
2024-02-16T11:23:31.225Z,100275.91
2024-02-16T11:26:02.656Z,100276.09
2024-02-16T11:28:32.081Z,100272.22
2024-02-16T11:31:01.757Z,100270.25
2024-02-16T11:33:29.546Z,100258.34
2024-02-16T11:35:57.298Z,100257.38
2024-02-16T11:38:27.142Z,100254.88
2024-02-16T11:41:03.966Z,100253.69
2024-02-16T11:43:30.994Z,100270.09
2024-02-16T11:45:58.099Z,100270.28
2024-02-16T11:48:25.901Z,100275.31
2024-02-16T11:51:03.321Z,100258.47
2024-02-16T11:53:30.370Z,100271.16
2024-02-16T11:55:57.011Z,100261.91
2024-02-16T11:58:25.329Z,100261.28
2024-02-16T12:00:55.718Z,100257.53
2024-02-16T12:03:26.085Z,100256.69
2024-02-16T12:05:56.816Z,100263.78
2024-02-16T12:08:26.515Z,100261.34
2024-02-16T12:10:53.426Z,100264.88
2024-02-16T12:13:20.624Z,100264.72
2024-02-16T12:15:52.841Z,100261.59
2024-02-16T12:18:26.968Z,100277.78
2024-02-16T12:21:07.636Z,100285.03
2024-02-16T12:23:34.929Z,100284.84
2024-02-16T12:26:01.899Z,100286.81
2024-02-16T12:28:29.404Z,100284.13
2024-02-16T12:30:57.086Z,100277.34
2024-02-16T12:33:24.688Z,100278.72
2024-02-16T12:35:51.492Z,100271.81
2024-02-16T12:38:20.531Z,100280.28
2024-02-16T12:40:48.232Z,100282.31
2024-02-16T12:43:15.240Z,100281.84
2024-02-16T12:45:49.962Z,100275.56
2024-02-16T12:48:17.002Z,100281.53
2024-02-16T12:50:43.664Z,100278.31
2024-02-16T12:53:10.986Z,100283.56
2024-02-16T12:55:37.822Z,100287.53
2024-02-16T12:58:05.103Z,100289.06
2024-02-16T13:00:31.959Z,100287.06
2024-02-16T13:02:58.677Z,100289.69
2024-02-16T13:05:26.192Z,100292.41
2024-02-16T13:07:53.107Z,100292.75
2024-02-16T13:10:20.175Z,100295.91
2024-02-16T13:12:47.094Z,100295.28
2024-02-16T13:15:26.597Z,100286.00
2024-02-16T13:17:56.238Z,100294.22
2024-02-16T13:20:23.446Z,100296.25
2024-02-16T13:22:50.248Z,100297.69
2024-02-16T13:25:17.243Z,100301.75
2024-02-16T13:27:46.504Z,100296.69
2024-02-16T13:30:13.450Z,100305.75
2024-02-16T13:32:41.433Z,100294.66
2024-02-16T13:35:08.611Z,100302.84
2024-02-16T13:37:40.790Z,100308.53
2024-02-16T13:40:11.703Z,100309.75
2024-02-16T13:42:42.117Z,100316.53
2024-02-16T13:45:09.544Z,100309.19
2024-02-16T13:50:17.099Z,100309.22
2024-02-16T13:52:43.939Z,100316.19
2024-02-16T13:55:10.573Z,100314.72
2024-02-16T13:57:37.300Z,100326.34
2024-02-16T14:00:04.520Z,100318.78
2024-02-16T14:02:41.696Z,100319.38
2024-02-16T14:05:09.097Z,100318.88
2024-02-16T14:07:40.963Z,100322.09
2024-02-16T14:13:25.097Z,100327.09
2024-02-16T14:15:52.011Z,100333.50
2024-02-16T14:18:27.259Z,100328.81
2024-02-16T14:21:00.970Z,100337.25
2024-02-16T14:23:30.301Z,100338.72
2024-02-16T14:25:57.335Z,100334.47
2024-02-16T14:28:23.931Z,100345.88
2024-02-16T14:30:50.636Z,100340.78
2024-02-16T14:33:20.551Z,100347.81
2024-02-16T14:35:51.430Z,100357.38
2024-02-16T14:38:18.060Z,100364.97
2024-02-16T14:40:44.819Z,100374.97
2024-02-16T14:43:11.691Z,100365.69
2024-02-16T14:45:39.545Z,100362.66
2024-02-16T14:48:06.659Z,100371.16
2024-02-16T14:50:36.126Z,100367.97
2024-02-16T14:53:06.263Z,100366.59
2024-02-16T14:55:32.999Z,100380.00
2024-02-16T14:57:59.655Z,100367.81
2024-02-16T15:00:26.939Z,100374.66
2024-02-16T15:02:54.728Z,100372.59
2024-02-16T15:05:21.998Z,100377.75
2024-02-16T15:07:48.787Z,100383.47
2024-02-16T15:10:15.427Z,100378.34
2024-02-16T15:12:44.398Z,100374.16
2024-02-16T15:15:14.483Z,100378.72
2024-02-16T15:17:44.143Z,100380.19
2024-02-16T15:20:11.598Z,100387.84
2024-02-16T15:22:45.684Z,100388.41
2024-02-16T15:25:18.951Z,100399.41
2024-02-16T15:27:45.596Z,100396.41
2024-02-16T15:30:12.474Z,100399.72
2024-02-16T15:32:39.167Z,100399.72
2024-02-16T15:35:06.184Z,100400.56
2024-02-16T15:37:32.865Z,100415.19
2024-02-16T15:40:04.526Z,100408.19
2024-02-16T15:42:32.189Z,100415.09
2024-02-16T15:45:00.442Z,100413.84
2024-02-16T15:47:27.402Z,100410.44
2024-02-16T15:50:04.407Z,100430.97
2024-02-16T15:52:31.214Z,100416.34
2024-02-16T15:55:00.134Z,100425.47
2024-02-16T15:57:26.766Z,100419.72
2024-02-16T15:59:53.408Z,100418.97
2024-02-16T16:02:20.128Z,100429.06
2024-02-16T16:04:46.803Z,100445.97
2024-02-16T16:07:19.669Z,100446.34
2024-02-16T16:09:46.483Z,100448.47
2024-02-16T16:12:13.234Z,100452.94
2024-02-16T16:14:39.970Z,100449.94
2024-02-16T16:17:06.968Z,100455.25
2024-02-16T16:19:33.647Z,100456.34
2024-02-16T16:22:00.383Z,100464.56
2024-02-16T16:24:30.236Z,100455.66
2024-02-16T16:26:56.961Z,100452.63
2024-02-16T16:29:24.686Z,100464.56
2024-02-16T16:31:51.372Z,100475.00
2024-02-16T16:34:18.134Z,100469.75
2024-02-16T16:36:45.030Z,100475.91
2024-02-16T16:39:11.791Z,100481.31
2024-02-16T16:41:39.318Z,100485.66
2024-02-16T16:44:05.992Z,100487.56
2024-02-16T16:46:32.620Z,100488.50
2024-02-16T16:48:59.580Z,100492.50
2024-02-16T16:51:26.322Z,100499.81
2024-02-16T16:53:52.999Z,100502.06
2024-02-16T16:56:19.687Z,100499.75
2024-02-16T16:58:46.470Z,100502.31
2024-02-16T17:01:16.066Z,100506.19
2024-02-16T17:03:45.279Z,100517.88
2024-02-16T17:06:12.790Z,100517.47
2024-02-16T17:08:42.681Z,100524.63
2024-02-16T17:11:11.213Z,100531.66
2024-02-16T17:13:38.006Z,100551.56
2024-02-16T17:16:04.853Z,100546.25
2024-02-16T17:18:35.262Z,100547.97
2024-02-16T17:21:07.726Z,100549.53
2024-02-16T17:23:34.632Z,100551.41
2024-02-16T17:26:01.280Z,100551.25
2024-02-16T17:28:28.008Z,100556.22
2024-02-16T17:30:54.654Z,100559.06
2024-02-16T17:33:21.552Z,100565.31
2024-02-16T17:35:48.522Z,100562.56
2024-02-16T17:38:15.740Z,100572.25
2024-02-16T17:40:44.760Z,100579.31
2024-02-16T17:43:14.974Z,100590.81
2024-02-16T17:45:44.035Z,100590.47
2024-02-16T17:48:14.757Z,100596.63
2024-02-16T17:50:41.828Z,100596.13
2024-02-16T17:53:10.884Z,100604.19
2024-02-16T17:55:38.816Z,100611.34
2024-02-16T17:58:05.936Z,100613.69
2024-02-16T18:00:34.871Z,100618.19
2024-02-16T18:03:01.627Z,100618.19
2024-02-16T18:05:29.484Z,100631.91
2024-02-16T18:07:56.109Z,100636.44
2024-02-16T18:10:22.855Z,100637.59
2024-02-16T18:12:50.133Z,100631.00
2024-02-16T18:15:17.913Z,100647.38
2024-02-16T18:17:47.282Z,100650.06
2024-02-16T18:20:14.396Z,100651.94
2024-02-16T18:22:41.533Z,100653.66
2024-02-16T18:25:11.103Z,100662.56
2024-02-16T18:27:40.700Z,100658.59
2024-02-16T18:30:07.697Z,100665.69
2024-02-16T18:32:34.365Z,100669.47
2024-02-16T18:35:04.724Z,100671.81
2024-02-16T18:37:31.512Z,100681.66
2024-02-16T18:39:58.148Z,100675.09
2024-02-16T18:42:24.883Z,100676.94
2024-02-16T18:44:53.607Z,100673.34
2024-02-16T18:47:20.439Z,100691.41
2024-02-16T18:49:49.442Z,100689.84
2024-02-16T18:52:16.442Z,100691.16
2024-02-16T18:54:43.086Z,100692.28
2024-02-16T18:57:09.913Z,100694.91
2024-02-16T18:59:39.076Z,100703.38
2024-02-16T19:02:05.720Z,100705.53
2024-02-16T19:04:34.909Z,100711.03
2024-02-16T19:07:01.796Z,100714.59
2024-02-16T19:09:29.116Z,100719.44
2024-02-16T19:11:55.863Z,100723.34
2024-02-16T19:14:24.954Z,100715.22
2024-02-16T19:16:51.909Z,100723.50
2024-02-16T19:19:18.675Z,100722.97
2024-02-16T19:21:45.331Z,100729.59
2024-02-16T19:24:12.646Z,100725.75
2024-02-16T19:26:42.630Z,100735.66
2024-02-16T19:29:09.310Z,100728.03
2024-02-16T19:31:35.882Z,100721.13
2024-02-16T19:34:02.896Z,100725.34
2024-02-16T19:36:35.336Z,100726.56
2024-02-16T19:39:02.107Z,100734.28
2024-02-16T19:41:28.764Z,100738.97
2024-02-16T19:43:55.607Z,100739.53
2024-02-16T19:46:22.211Z,100749.28
2024-02-16T19:48:52.146Z,100746.97
2024-02-16T19:51:19.396Z,100756.63
2024-02-16T19:53:46.062Z,100750.28
2024-02-16T19:56:12.868Z,100764.63
2024-02-16T19:58:39.523Z,100774.03
2024-02-16T20:01:09.041Z,100786.03
2024-02-16T20:03:35.893Z,100771.66
2024-02-16T20:06:03.639Z,100786.47
2024-02-16T20:08:31.790Z,100793.03
2024-02-16T20:10:58.539Z,100806.25
2024-02-16T20:13:25.762Z,100807.53
2024-02-16T20:15:54.930Z,100809.25
2024-02-16T20:18:27.760Z,100817.22
2024-02-16T20:20:56.005Z,100828.72
2024-02-16T20:23:23.565Z,100822.31
2024-02-16T20:25:57.718Z,100829.91
2024-02-16T20:28:24.360Z,100841.63
2024-02-16T20:30:51.159Z,100847.31
2024-02-16T20:33:18.648Z,100849.81
2024-02-16T20:35:45.359Z,100853.56
2024-02-16T20:38:11.952Z,100861.75
2024-02-16T20:40:38.649Z,100868.00
2024-02-16T20:43:05.449Z,100864.94
2024-02-16T20:45:32.148Z,100875.56
2024-02-16T20:48:00.746Z,100888.56
2024-02-16T20:50:27.766Z,100888.75
2024-02-16T20:52:54.627Z,100894.31
2024-02-16T20:55:21.333Z,100901.03
2024-02-16T20:57:48.144Z,100909.47
2024-02-16T21:00:15.983Z,100907.22
2024-02-16T21:02:42.668Z,100906.34
2024-02-16T21:05:09.251Z,100902.91
2024-02-16T21:07:35.936Z,100915.56
2024-02-16T21:10:05.913Z,100915.03
2024-02-16T21:12:32.684Z,100914.63
2024-02-16T21:14:59.469Z,100916.25
2024-02-16T21:17:26.203Z,100923.78
2024-02-16T21:19:53.071Z,100924.47
2024-02-16T21:22:19.686Z,100925.38
2024-02-16T21:24:46.427Z,100927.41
2024-02-16T21:27:14.354Z,100928.44
2024-02-16T21:29:41.272Z,100933.66
2024-02-16T21:32:07.953Z,100933.47
2024-02-16T21:34:34.687Z,100942.63
2024-02-16T21:37:01.496Z,100945.91
2024-02-16T21:39:28.177Z,100951.63
2024-02-16T21:41:54.833Z,100955.31
2024-02-16T21:44:21.986Z,100964.63
2024-02-16T21:46:48.732Z,100963.09
2024-02-16T21:49:16.893Z,100959.00
2024-02-16T21:51:44.129Z,100964.88
2024-02-16T21:54:10.815Z,100950.66
2024-02-16T21:56:37.606Z,100956.66
2024-02-16T21:59:04.365Z,100958.75
2024-02-16T22:01:33.998Z,100969.00
2024-02-16T22:04:04.714Z,100976.91
2024-02-16T22:06:31.686Z,100977.50
2024-02-16T22:09:02.514Z,100976.91
2024-02-16T22:11:29.435Z,100985.16
2024-02-16T22:13:56.321Z,100985.69
2024-02-16T22:16:23.312Z,100989.25
2024-02-16T22:18:52.362Z,100986.50
2024-02-16T22:21:22.452Z,100987.03
2024-02-16T22:23:58.055Z,100991.47
2024-02-16T22:26:24.928Z,101003.84
2024-02-16T22:28:51.555Z,101008.25
2024-02-16T22:31:20.048Z,101014.47
2024-02-16T22:33:46.855Z,101020.19
2024-02-16T22:36:13.653Z,101014.41
2024-02-16T22:38:40.312Z,101023.84
2024-02-16T22:41:06.987Z,101027.66
2024-02-16T22:43:33.552Z,101033.16
2024-02-16T22:46:00.165Z,101029.78
2024-02-16T22:48:26.867Z,101031.28
2024-02-16T22:50:53.821Z,101036.84
2024-02-16T22:53:28.675Z,101040.81
2024-02-16T22:55:55.349Z,101043.25
2024-02-16T22:58:22.017Z,101045.47
2024-02-16T23:00:49.399Z,101049.72
2024-02-16T23:03:16.159Z,101055.34
2024-02-16T23:05:45.233Z,101062.47
2024-02-16T23:08:12.024Z,101066.69
2024-02-16T23:10:42.158Z,101070.41
2024-02-16T23:13:12.600Z,101071.09
2024-02-16T23:15:39.426Z,101068.91
2024-02-16T23:18:06.418Z,101072.72
2024-02-16T23:20:35.982Z,101070.66
2024-02-16T23:23:07.045Z,101079.22
2024-02-16T23:25:40.216Z,101081.50
2024-02-16T23:28:07.480Z,101087.09
2024-02-16T23:30:34.179Z,101088.16
2024-02-16T23:33:01.301Z,101087.72
2024-02-16T23:35:27.980Z,101092.25
2024-02-16T23:37:54.671Z,101090.19
2024-02-16T23:40:21.227Z,101100.78
2024-02-16T23:42:48.045Z,101097.94
2024-02-16T23:45:18.808Z,101104.25
2024-02-16T23:47:45.906Z,101102.91
2024-02-16T23:50:13.436Z,101108.78
2024-02-16T23:52:40.174Z,101106.38
2024-02-16T23:55:07.924Z,101110.94
2024-02-16T23:57:35.099Z,101110.66
